createdAt,value
2022-12-13T00:01:31.370Z,12.20
2022-12-13T00:04:01.174Z,13.88
2022-12-13T00:06:30.589Z,11.88
2022-12-13T00:08:59.252Z,13.05
2022-12-13T00:11:28.483Z,14.15
2022-12-13T00:13:58.095Z,12.48
2022-12-13T00:16:27.782Z,13.02
2022-12-13T00:18:57.190Z,12.10
2022-12-13T00:21:27.645Z,13.68
2022-12-13T00:23:56.024Z,12.70
2022-12-13T00:26:26.339Z,13.43
2022-12-13T00:28:54.824Z,13.00
2022-12-13T00:34:14.218Z,13.90
2022-12-13T00:36:42.187Z,12.73
2022-12-13T00:39:12.771Z,13.25
2022-12-13T00:41:40.895Z,13.48
2022-12-13T00:44:08.799Z,13.60
2022-12-13T00:46:38.693Z,13.10
2022-12-13T00:49:07.025Z,13.07
2022-12-13T00:51:35.952Z,13.52
2022-12-13T00:54:03.857Z,12.32
2022-12-13T00:56:33.033Z,12.75
2022-12-13T00:59:01.269Z,13.25
2022-12-13T01:01:32.260Z,13.50
2022-12-13T01:04:04.145Z,13.90
2022-12-13T01:06:36.417Z,12.50
2022-12-13T01:09:05.616Z,12.57
2022-12-13T01:11:34.347Z,13.52
2022-12-13T01:14:02.498Z,15.95
2022-12-13T01:16:30.610Z,12.57
2022-12-13T01:18:59.140Z,13.60
2022-12-13T01:21:29.937Z,13.85
2022-12-13T01:24:03.313Z,13.23
2022-12-13T01:26:31.705Z,14.25
2022-12-13T01:28:59.683Z,14.10
2022-12-13T01:31:28.108Z,13.63
2022-12-13T01:33:56.266Z,14.40
2022-12-13T01:36:28.021Z,13.98
2022-12-13T01:38:58.600Z,14.38
2022-12-13T01:41:27.934Z,13.18
2022-12-13T01:44:03.000Z,14.00
2022-12-13T01:46:32.345Z,15.18
2022-12-13T01:49:06.121Z,14.07
2022-12-13T01:51:52.678Z,13.43
2022-12-13T01:54:33.685Z,14.95
2022-12-13T01:57:06.446Z,14.55
2022-12-13T01:59:35.709Z,13.88
2022-12-13T02:02:03.932Z,13.48
2022-12-13T02:04:37.381Z,14.32
2022-12-13T02:07:14.141Z,15.38
2022-12-13T02:09:56.803Z,13.77
2022-12-13T02:12:30.168Z,13.48
2022-12-13T02:15:01.110Z,13.80
2022-12-13T02:17:44.518Z,14.02
2022-12-13T02:20:51.973Z,13.25
2022-12-13T02:23:50.423Z,13.23
2022-12-13T02:26:42.817Z,13.93
2022-12-13T02:29:41.625Z,12.70
2022-12-13T02:32:16.511Z,13.63
2022-12-13T02:34:50.504Z,13.20
2022-12-13T02:37:24.281Z,13.52
2022-12-13T02:40:00.767Z,13.48
2022-12-13T02:42:34.797Z,14.55
2022-12-13T02:45:07.527Z,14.25
2022-12-13T02:47:39.291Z,13.75
2022-12-13T02:50:09.732Z,12.90
2022-12-13T02:52:38.948Z,13.13
2022-12-13T02:55:08.702Z,13.85
2022-12-13T02:57:38.446Z,13.15
2022-12-13T03:00:09.354Z,13.63
2022-12-13T03:02:47.424Z,12.65
2022-12-13T03:05:44.371Z,13.65
2022-12-13T03:08:22.754Z,13.20
2022-12-13T03:11:00.712Z,13.68
2022-12-13T03:13:36.941Z,13.25
2022-12-13T03:16:22.698Z,11.75
2022-12-13T03:18:54.107Z,13.52
2022-12-13T03:21:22.202Z,13.93
2022-12-13T03:23:50.153Z,13.73
2022-12-13T03:26:22.072Z,13.57
2022-12-13T03:28:50.018Z,14.05
2022-12-13T03:31:18.290Z,14.55
2022-12-13T03:33:46.921Z,14.20
2022-12-13T03:36:17.314Z,12.93
2022-12-13T03:38:45.564Z,13.02
2022-12-13T03:41:18.426Z,13.02
2022-12-13T03:43:47.036Z,13.80
2022-12-13T03:46:15.444Z,14.75
2022-12-13T03:48:43.356Z,14.20
2022-12-13T03:51:11.325Z,14.65
2022-12-13T03:53:40.570Z,13.80
2022-12-13T03:56:09.126Z,14.10
2022-12-13T03:58:38.350Z,14.35
2022-12-13T04:01:07.861Z,13.50
2022-12-13T04:03:36.221Z,12.80
2022-12-13T04:06:05.384Z,15.10
2022-12-13T04:08:33.862Z,14.43
2022-12-13T04:11:24.689Z,13.82
2022-12-13T04:13:51.865Z,13.82
2022-12-13T04:16:20.011Z,14.32
2022-12-13T04:18:48.104Z,13.38
2022-12-13T04:21:16.374Z,14.48
2022-12-13T04:23:44.308Z,14.93
2022-12-13T04:26:13.591Z,15.80
2022-12-13T04:28:41.507Z,13.63
2022-12-13T04:31:09.479Z,15.45
2022-12-13T04:33:37.406Z,14.18
2022-12-13T04:36:07.279Z,14.35
2022-12-13T04:38:35.185Z,14.70
2022-12-13T04:41:08.530Z,15.20
2022-12-13T04:43:37.930Z,15.63
2022-12-13T04:46:06.184Z,14.15
2022-12-13T04:48:34.550Z,15.48
2022-12-13T04:51:04.049Z,13.77
2022-12-13T04:53:32.135Z,15.57
2022-12-13T04:56:00.406Z,15.63
2022-12-13T04:58:29.336Z,15.98
2022-12-13T05:00:58.695Z,15.50
2022-12-13T05:03:27.930Z,15.27
2022-12-13T05:05:56.877Z,14.05
2022-12-13T05:08:24.772Z,14.23
2022-12-13T05:10:52.685Z,15.18
2022-12-13T05:13:20.546Z,15.23
2022-12-13T05:15:55.341Z,15.25
2022-12-13T05:18:24.719Z,14.75
2022-12-13T05:20:53.247Z,15.27
2022-12-13T05:23:23.144Z,15.45
2022-12-13T05:25:51.253Z,13.77
2022-12-13T05:28:27.877Z,14.70
2022-12-13T05:30:59.221Z,14.55
2022-12-13T05:33:28.698Z,14.93
2022-12-13T05:36:01.303Z,14.73
2022-12-13T05:38:30.861Z,13.73
2022-12-13T05:40:59.296Z,16.10
2022-12-13T05:43:42.015Z,15.13
2022-12-13T05:46:14.144Z,13.65
2022-12-13T05:48:43.823Z,14.38
2022-12-13T05:51:12.350Z,12.57
2022-12-13T05:53:42.140Z,13.43
2022-12-13T05:56:11.508Z,13.57
2022-12-13T05:58:40.867Z,13.60
2022-12-13T06:01:10.408Z,13.95
2022-12-13T06:03:38.549Z,13.90
2022-12-13T06:06:09.896Z,14.20
2022-12-13T06:08:38.442Z,14.60
2022-12-13T06:11:11.261Z,14.35
2022-12-13T06:13:42.838Z,12.93
2022-12-13T06:16:21.661Z,13.43
2022-12-13T06:19:00.915Z,13.20
2022-12-13T06:21:43.500Z,13.57
2022-12-13T06:24:14.695Z,13.23
2022-12-13T06:26:42.817Z,14.07
2022-12-13T06:29:13.726Z,13.82
2022-12-13T06:32:02.004Z,13.18
2022-12-13T06:34:33.246Z,13.07
2022-12-13T06:37:03.580Z,12.88
2022-12-13T06:39:32.493Z,12.50
2022-12-13T06:42:02.551Z,12.38
2022-12-13T06:44:30.412Z,13.02
2022-12-13T06:47:10.630Z,13.10
2022-12-13T06:49:41.421Z,12.88
2022-12-13T06:52:12.952Z,13.20
2022-12-13T06:54:41.409Z,11.75
2022-12-13T06:57:09.513Z,12.20
2022-12-13T06:59:37.784Z,11.75
2022-12-13T07:02:24.560Z,11.88
2022-12-13T07:04:53.435Z,11.90
2022-12-13T07:07:23.094Z,11.85
2022-12-13T07:09:51.005Z,11.93
2022-12-13T07:12:20.865Z,11.65
2022-12-13T07:14:49.527Z,11.63
2022-12-13T07:17:32.640Z,12.85
2022-12-13T07:20:09.255Z,13.40
2022-12-13T07:22:45.178Z,11.82
2022-12-13T07:25:28.217Z,13.02
2022-12-13T07:28:02.179Z,11.15
2022-12-13T07:30:31.224Z,12.55
2022-12-13T07:32:59.147Z,12.60
2022-12-13T07:35:27.057Z,12.40
2022-12-13T07:37:56.667Z,13.15
2022-12-13T07:40:24.495Z,12.35
2022-12-13T07:42:52.431Z,12.63
2022-12-13T07:45:20.496Z,12.32
2022-12-13T07:47:48.513Z,12.23
2022-12-13T07:50:24.603Z,13.13
2022-12-13T07:52:54.373Z,12.35
2022-12-13T07:55:33.708Z,13.27
2022-12-13T07:58:06.998Z,12.48
2022-12-13T08:00:34.965Z,12.80
2022-12-13T08:03:02.968Z,13.65
2022-12-13T08:05:38.251Z,13.55
2022-12-13T08:08:08.908Z,11.60
2022-12-13T08:10:39.101Z,14.07
2022-12-13T08:13:07.252Z,12.38
2022-12-13T08:15:35.112Z,13.75
2022-12-13T08:18:03.934Z,13.68
2022-12-13T08:20:31.836Z,12.88
2022-12-13T08:23:01.981Z,13.00
2022-12-13T08:25:31.618Z,13.60
2022-12-13T08:28:01.482Z,12.52
2022-12-13T08:30:31.080Z,13.10
2022-12-13T08:32:59.032Z,12.70
2022-12-13T08:35:34.552Z,13.23
2022-12-13T08:38:03.442Z,13.32
2022-12-13T08:40:31.258Z,12.68
2022-12-13T08:43:00.451Z,13.05
2022-12-13T08:45:28.481Z,13.45
2022-12-13T08:47:59.236Z,13.98
2022-12-13T08:50:27.652Z,13.32
2022-12-13T08:52:57.407Z,14.85
2022-12-13T08:55:32.099Z,14.95
2022-12-13T08:58:08.359Z,14.45
2022-12-13T09:00:36.799Z,14.73
2022-12-13T09:03:05.772Z,15.02
2022-12-13T09:05:38.166Z,14.82
2022-12-13T09:08:22.997Z,14.77
2022-12-13T09:10:59.948Z,14.87
2022-12-13T09:13:31.620Z,13.37
2022-12-13T09:16:04.537Z,15.20
2022-12-13T09:18:36.517Z,13.93
2022-12-13T09:21:11.310Z,13.30
2022-12-13T09:23:46.120Z,14.53
2022-12-13T09:26:17.348Z,14.30
2022-12-13T09:28:46.571Z,13.13
2022-12-13T09:31:17.074Z,12.87
2022-12-13T09:33:45.545Z,13.77
2022-12-13T09:36:14.968Z,13.30
2022-12-13T09:38:42.929Z,13.10
2022-12-13T09:41:21.134Z,12.13
2022-12-13T09:44:02.534Z,13.17
2022-12-13T09:46:34.360Z,12.43
2022-12-13T09:49:05.218Z,14.03
2022-12-13T09:51:47.330Z,12.70
2022-12-13T09:54:21.767Z,13.37
2022-12-13T09:56:51.532Z,11.90
2022-12-13T09:59:27.037Z,12.07
2022-12-13T10:01:55.802Z,11.80
2022-12-13T10:04:24.094Z,11.40
2022-12-13T10:06:54.521Z,12.10
2022-12-13T10:09:22.824Z,12.83
2022-12-13T10:11:52.706Z,12.23
2022-12-13T10:14:27.337Z,12.20
2022-12-13T10:16:58.771Z,11.87
2022-12-13T10:19:32.699Z,12.60
2022-12-13T10:22:02.973Z,11.27
2022-12-13T10:24:48.314Z,11.50
2022-12-13T10:27:18.682Z,11.50
2022-12-13T10:30:10.659Z,11.20
2022-12-13T10:32:48.889Z,11.60
2022-12-13T10:35:26.429Z,11.07
2022-12-13T10:37:55.246Z,11.37
2022-12-13T10:40:33.142Z,11.47
2022-12-13T10:43:13.232Z,10.87
2022-12-13T10:45:43.472Z,10.97
2022-12-13T10:48:22.090Z,11.10
2022-12-13T10:51:02.913Z,11.97
2022-12-13T10:53:34.216Z,10.53
2022-12-13T10:56:03.938Z,10.30
2022-12-13T10:58:40.375Z,10.87
2022-12-13T11:01:21.941Z,10.70
2022-12-13T11:04:02.553Z,11.03
2022-12-13T11:06:43.239Z,10.53
2022-12-13T11:09:23.182Z,10.07
2022-12-13T11:11:58.022Z,10.17
2022-12-13T11:14:31.839Z,10.70
2022-12-13T11:17:08.612Z,10.90
2022-12-13T11:19:45.475Z,10.10
2022-12-13T11:22:22.635Z,9.77
2022-12-13T11:24:52.617Z,9.97
2022-12-13T11:27:38.686Z,9.60
2022-12-13T11:30:16.114Z,10.60
2022-12-13T11:33:04.831Z,10.33
2022-12-13T11:35:42.603Z,10.33
2022-12-13T11:38:23.901Z,10.87
2022-12-13T11:40:56.771Z,10.03
2022-12-13T11:43:29.727Z,10.60
2022-12-13T11:46:03.103Z,11.30
2022-12-13T11:48:42.009Z,10.23
2022-12-13T11:51:13.707Z,10.20
2022-12-13T11:53:54.785Z,10.70
2022-12-13T11:56:26.774Z,10.73
2022-12-13T11:59:03.892Z,11.30
2022-12-13T12:01:41.225Z,10.60
2022-12-13T12:04:20.678Z,10.57
2022-12-13T12:06:54.811Z,10.77
2022-12-13T12:09:29.004Z,10.80
2022-12-13T12:12:02.101Z,10.53
2022-12-13T12:14:41.078Z,10.83
2022-12-13T12:17:13.718Z,10.90
2022-12-13T12:19:46.638Z,10.40
2022-12-13T12:22:25.794Z,10.80
2022-12-13T12:25:04.994Z,9.73
2022-12-13T12:27:43.503Z,10.23
2022-12-13T12:30:23.466Z,9.57
2022-12-13T12:33:00.306Z,10.23
2022-12-13T12:36:00.577Z,10.07
2022-12-13T12:38:51.582Z,9.60
2022-12-13T12:41:33.677Z,9.67
2022-12-13T12:44:12.617Z,9.53
2022-12-13T12:47:09.466Z,9.17
2022-12-13T12:50:17.896Z,9.77
2022-12-13T12:53:00.439Z,9.30
2022-12-13T12:55:38.342Z,9.77
2022-12-13T12:58:17.724Z,9.57
2022-12-13T13:00:56.297Z,9.20
2022-12-13T13:03:26.898Z,9.27
2022-12-13T13:06:02.430Z,9.37
2022-12-13T13:08:37.046Z,9.03
2022-12-13T13:11:24.429Z,9.07
2022-12-13T13:14:06.463Z,8.33
2022-12-13T13:16:37.519Z,8.53
2022-12-13T13:19:06.096Z,8.25
2022-12-13T13:21:47.236Z,7.80
2022-12-13T13:24:24.670Z,8.40
2022-12-13T13:26:54.991Z,8.67
2022-12-13T13:29:35.551Z,8.97
2022-12-13T13:32:29.253Z,7.53
2022-12-13T13:35:51.087Z,7.17
2022-12-13T13:38:54.252Z,6.73
2022-12-13T13:41:56.473Z,7.00
2022-12-13T13:45:10.527Z,7.20
2022-12-13T13:47:41.221Z,6.97
2022-12-13T13:50:55.179Z,6.73
2022-12-13T13:53:59.523Z,6.67
2022-12-13T13:56:39.297Z,7.00
2022-12-13T13:59:53.713Z,7.30
2022-12-13T14:03:22.230Z,7.25
2022-12-13T14:06:42.872Z,6.00
2022-12-13T14:09:33.293Z,6.50
2022-12-13T14:12:51.030Z,7.10
2022-12-13T14:15:58.610Z,7.07
2022-12-13T14:19:11.209Z,6.27
2022-12-13T14:22:09.994Z,6.30
2022-12-13T14:24:51.556Z,6.70
2022-12-13T14:27:35.621Z,7.22
2022-12-13T14:30:09.632Z,6.47
2022-12-13T14:32:53.834Z,6.80
2022-12-13T14:35:27.729Z,6.50
2022-12-13T14:38:00.733Z,6.82
2022-12-13T14:40:31.675Z,6.95
2022-12-13T14:42:59.990Z,7.43
2022-12-13T14:45:30.433Z,6.95
2022-12-13T14:48:02.238Z,6.53
2022-12-13T14:50:34.431Z,7.57
2022-12-13T14:53:03.618Z,7.60
2022-12-13T14:55:33.568Z,7.53
2022-12-13T14:58:03.751Z,6.97
2022-12-13T15:00:35.255Z,7.28
2022-12-13T15:03:05.693Z,6.88
2022-12-13T15:05:38.014Z,6.57
2022-12-13T15:08:10.676Z,7.38
2022-12-13T15:10:42.106Z,7.13
2022-12-13T15:13:26.111Z,6.88
2022-12-13T15:16:01.137Z,7.50
2022-12-13T15:18:31.281Z,7.20
2022-12-13T15:20:59.619Z,7.55
2022-12-13T15:23:31.284Z,7.18
2022-12-13T15:26:01.097Z,7.60
2022-12-13T15:28:32.823Z,6.72
2022-12-13T15:31:02.030Z,7.18
2022-12-13T15:33:35.424Z,7.15
2022-12-13T15:36:10.503Z,7.28
2022-12-13T15:38:41.522Z,7.30
2022-12-13T15:41:18.111Z,8.30
2022-12-13T15:43:49.148Z,6.95
2022-12-13T15:46:25.991Z,7.88
2022-12-13T15:48:56.984Z,8.32
2022-12-13T15:51:29.331Z,7.80
2022-12-13T15:54:08.081Z,7.35
2022-12-13T15:56:38.673Z,6.82
2022-12-13T15:59:24.356Z,7.15
2022-12-13T16:01:58.017Z,7.18
2022-12-13T16:04:30.076Z,8.38
2022-12-13T16:06:59.034Z,7.68
2022-12-13T16:09:30.966Z,8.00
2022-12-13T16:12:01.317Z,7.38
2022-12-13T16:14:49.450Z,8.55
2022-12-13T16:17:24.415Z,8.00
2022-12-13T16:19:54.841Z,7.43
2022-12-13T16:22:23.932Z,7.57
2022-12-13T16:24:53.244Z,7.43
2022-12-13T16:27:21.713Z,7.43
2022-12-13T16:29:49.783Z,8.13
2022-12-13T16:32:17.712Z,7.65
2022-12-13T16:34:45.612Z,7.38
2022-12-13T16:37:25.676Z,7.45
2022-12-13T16:39:54.957Z,7.57
2022-12-13T16:42:26.083Z,7.07
2022-12-13T16:45:17.802Z,7.70
2022-12-13T16:47:48.346Z,7.32
2022-12-13T16:50:18.690Z,8.50
2022-12-13T16:52:48.171Z,6.93
2022-12-13T16:55:16.535Z,8.20
2022-12-13T16:57:44.479Z,7.45
2022-12-13T17:00:14.022Z,6.25
2022-12-13T17:02:42.101Z,7.47
2022-12-13T17:05:10.468Z,7.07
2022-12-13T17:07:38.354Z,6.57
2022-12-13T17:10:10.304Z,7.65
2022-12-13T17:12:38.342Z,7.60
2022-12-13T17:15:08.477Z,7.65
2022-12-13T17:17:37.901Z,7.32
2022-12-13T17:20:06.639Z,7.63
2022-12-13T17:22:34.622Z,8.55
2022-12-13T17:25:02.625Z,7.35
2022-12-13T17:27:32.578Z,7.75
2022-12-13T17:30:01.143Z,8.00
2022-12-13T17:32:29.523Z,6.78
2022-12-13T17:34:57.991Z,7.15
2022-12-13T17:37:26.379Z,6.93
2022-12-13T17:39:54.301Z,7.28
2022-12-13T17:42:22.137Z,7.07
2022-12-13T17:44:51.390Z,6.97
2022-12-13T17:47:19.328Z,6.85
2022-12-13T17:49:47.193Z,6.63
2022-12-13T17:52:15.087Z,7.07
2022-12-13T17:54:42.980Z,6.38
2022-12-13T17:57:11.830Z,7.05
2022-12-13T17:59:43.112Z,6.22
2022-12-13T18:02:14.051Z,6.65
2022-12-13T18:04:43.011Z,5.82
2022-12-13T18:07:10.869Z,6.70
2022-12-13T18:09:38.781Z,6.43
2022-12-13T18:12:08.427Z,6.10
2022-12-13T18:14:36.541Z,6.55
2022-12-13T18:17:04.538Z,5.97
2022-12-13T18:19:34.154Z,6.93
2022-12-13T18:22:02.653Z,6.90
2022-12-13T18:24:30.609Z,6.65
2022-12-13T18:26:58.686Z,6.18
2022-12-13T18:29:27.533Z,6.28
2022-12-13T18:31:55.509Z,5.57
2022-12-13T18:34:23.360Z,5.90
2022-12-13T18:36:52.975Z,6.80
2022-12-13T18:39:21.000Z,5.82
2022-12-13T18:41:48.902Z,6.20
2022-12-13T18:44:16.838Z,6.13
2022-12-13T18:46:46.307Z,6.05
2022-12-13T18:49:14.481Z,6.13
2022-12-13T18:51:42.411Z,5.45
2022-12-13T18:54:12.279Z,6.20
2022-12-13T18:56:40.218Z,6.38
2022-12-13T18:59:08.261Z,6.18
2022-12-13T19:01:36.259Z,5.88
2022-12-13T19:04:04.291Z,5.95
2022-12-13T19:06:32.176Z,6.18
2022-12-13T19:09:00.127Z,6.82
2022-12-13T19:11:29.995Z,7.07
2022-12-13T19:13:58.199Z,6.32
2022-12-13T19:16:27.538Z,6.68
2022-12-13T19:18:55.714Z,6.05
2022-12-13T19:21:23.912Z,5.97
2022-12-13T19:23:57.493Z,6.30
2022-12-13T19:26:27.974Z,6.25
2022-12-13T19:28:59.006Z,6.97
2022-12-13T19:31:31.714Z,7.25
2022-12-13T19:34:01.281Z,6.07
2022-12-13T19:36:30.310Z,6.13
2022-12-13T19:38:58.657Z,6.07
2022-12-13T19:41:27.028Z,6.13
2022-12-13T19:43:54.995Z,6.60
2022-12-13T19:46:24.680Z,6.32
2022-12-13T19:48:52.792Z,6.45
2022-12-13T19:51:21.423Z,6.50
2022-12-13T19:53:49.624Z,6.57
2022-12-13T19:56:19.450Z,5.95
2022-12-13T19:58:48.537Z,7.53
2022-12-13T20:01:17.789Z,6.53
2022-12-13T20:03:47.798Z,6.38
2022-12-13T20:06:20.508Z,6.03
2022-12-13T20:08:48.823Z,6.70
2022-12-13T20:11:20.076Z,7.47
2022-12-13T20:13:49.199Z,6.93
2022-12-13T20:16:18.561Z,8.95
2022-12-13T20:18:48.822Z,8.02
2022-12-13T20:21:16.935Z,10.13
2022-12-13T20:23:49.390Z,8.27
2022-12-13T20:26:20.816Z,8.35
2022-12-13T20:28:48.935Z,8.57
2022-12-13T20:31:18.876Z,7.60
2022-12-13T20:33:49.027Z,7.47
2022-12-13T20:36:26.690Z,6.95
2022-12-13T20:38:56.494Z,6.70
2022-12-13T20:41:25.869Z,7.38
2022-12-13T20:43:54.359Z,6.60
2022-12-13T20:46:23.198Z,6.78
2022-12-13T20:48:52.883Z,6.88
2022-12-13T20:51:22.759Z,7.45
2022-12-13T20:53:52.353Z,6.85
2022-12-13T20:56:22.724Z,6.60
2022-12-13T20:58:51.362Z,5.80
2022-12-13T21:01:20.830Z,6.68
2022-12-13T21:03:49.440Z,6.47
2022-12-13T21:06:18.667Z,6.38
2022-12-13T21:08:52.868Z,6.15
2022-12-13T21:11:25.806Z,6.50
2022-12-13T21:13:56.170Z,6.47
2022-12-13T21:16:25.867Z,6.35
2022-12-13T21:18:55.348Z,6.88
2022-12-13T21:21:25.549Z,6.75
2022-12-13T21:23:55.023Z,5.95
2022-12-13T21:26:24.248Z,5.88
2022-12-13T21:28:56.555Z,6.57
2022-12-13T21:31:25.075Z,5.82
2022-12-13T21:33:54.826Z,5.93
2022-12-13T21:36:25.518Z,5.80
2022-12-13T21:38:54.755Z,6.47
2022-12-13T21:41:23.471Z,6.32
2022-12-13T21:43:52.054Z,6.32
2022-12-13T21:46:21.677Z,6.53
2022-12-13T21:48:50.638Z,5.93
2022-12-13T21:51:20.299Z,6.65
2022-12-13T21:53:50.762Z,5.93
2022-12-13T21:56:38.934Z,6.20
2022-12-13T21:59:19.070Z,6.35
2022-12-13T22:02:07.103Z,6.05
2022-12-13T22:04:36.583Z,6.82
2022-12-13T22:07:06.689Z,6.22
2022-12-13T22:09:37.089Z,6.22
2022-12-13T22:12:08.820Z,6.20
2022-12-13T22:14:37.206Z,5.78
2022-12-13T22:17:05.117Z,6.38
2022-12-13T22:19:33.111Z,5.63
2022-12-13T22:22:01.118Z,6.20
2022-12-13T22:24:29.047Z,5.53
2022-12-13T22:26:58.218Z,6.20
2022-12-13T22:29:26.276Z,6.40
2022-12-13T22:31:54.285Z,5.93
2022-12-13T22:34:22.325Z,6.05
2022-12-13T22:36:50.138Z,6.10
2022-12-13T22:39:18.959Z,6.07
2022-12-13T22:41:47.880Z,6.22
2022-12-13T22:44:18.655Z,6.07
2022-12-13T22:46:46.528Z,6.20
2022-12-13T22:49:15.145Z,5.15
2022-12-13T22:51:43.280Z,5.80
2022-12-13T22:54:11.244Z,5.20
2022-12-13T22:56:39.191Z,6.93
2022-12-13T22:59:08.208Z,5.63
2022-12-13T23:01:39.968Z,6.18
2022-12-13T23:04:08.284Z,6.88
2022-12-13T23:06:38.321Z,5.90
2022-12-13T23:09:08.094Z,6.78
2022-12-13T23:11:53.789Z,6.35
2022-12-13T23:14:27.020Z,6.40
2022-12-13T23:16:56.768Z,5.07
2022-12-13T23:19:41.472Z,5.68
2022-12-13T23:22:13.819Z,5.50
2022-12-13T23:24:41.806Z,5.75
2022-12-13T23:27:09.760Z,5.20
2022-12-13T23:29:37.889Z,5.60
2022-12-13T23:32:07.449Z,4.90
2022-12-13T23:34:35.540Z,5.38
2022-12-13T23:37:03.508Z,5.30
2022-12-13T23:39:31.455Z,5.22
2022-12-13T23:41:59.412Z,5.28
2022-12-13T23:44:27.287Z,4.70
2022-12-13T23:46:55.240Z,5.60
2022-12-13T23:49:24.513Z,5.35
2022-12-13T23:51:52.427Z,5.47
2022-12-13T23:54:20.354Z,5.18
2022-12-13T23:56:48.603Z,5.18
2022-12-13T23:59:16.491Z,5.25
